Time;durP1;ratioP1;P1;durP2;ratioP2;P2;SDS_P1;SDS_P2;PMS_P1;PMS_P2;Temp;Humidity;BMP_temperature;BMP_pressure;BME280_temperature;BME280_humidity;BME280_pressure;Samples;Min_cycle;Max_cycle;Signal;HPM_P1;HPM_P2
2021/12/23 00:01:30;;;;;;;24.57;16.63;;;;;;;;;;4997672;28;20228;-56
2021/12/23 00:03:55;;;;;;;22.57;16.83;;;;;;;;;;5003425;28;21186;-55
2021/12/23 00:06:21;;;;;;;22.53;16.27;;;;;;;;;;4992798;28;20483;-56
2021/12/23 00:08:47;;;;;;;23.17;16.17;;;;;;;;;;4997181;28;20241;-56
2021/12/23 00:11:13;;;;;;;22.70;15.73;;;;;;;;;;5005862;28;20746;-56
2021/12/23 00:13:48;;;;;;;23.50;16.17;;;;;;;;;;5006824;28;20300;-56
2021/12/23 00:16:18;;;;;;;21.63;15.83;;;;;;;;;;4989018;28;20730;-56
2021/12/23 00:18:51;;;;;;;24.13;15.97;;;;;;;;;;4993965;28;20240;-56
2021/12/23 00:24:02;;;;;;;23.63;16.73;;;;;;;;;;4988341;28;20270;-56
2021/12/23 00:26:28;;;;;;;21.83;15.50;;;;;;;;;;5013131;28;20631;-56
2021/12/23 00:28:54;;;;;;;22.10;16.63;;;;;;;;;;5006301;28;20289;-56
2021/12/23 00:31:20;;;;;;;23.23;16.03;;;;;;;;;;5007929;28;20326;-55
2021/12/23 00:33:46;;;;;;;26.33;17.63;;;;;;;;;;5001023;28;20225;-56
2021/12/23 00:36:12;;;;;;;23.20;16.70;;;;;;;;;;4996852;28;20243;-56
2021/12/23 00:38:44;;;;;;;24.17;16.63;;;;;;;;;;5006858;28;20240;-56
2021/12/23 00:41:10;;;;;;;22.87;15.60;;;;;;;;;;5003675;28;20231;-56
2021/12/23 00:43:36;;;;;;;22.47;16.47;;;;;;;;;;5004178;28;20616;-56
2021/12/23 00:46:06;;;;;;;23.57;16.30;;;;;;;;;;5007234;28;21326;-56
2021/12/23 00:48:32;;;;;;;22.93;16.30;;;;;;;;;;5020839;28;20654;-56
2021/12/23 00:50:58;;;;;;;23.17;16.53;;;;;;;;;;4999029;28;20530;-56
2021/12/23 00:53:26;;;;;;;25.63;16.40;;;;;;;;;;5003059;28;20776;-56
2021/12/23 00:55:54;;;;;;;22.00;16.23;;;;;;;;;;4991776;28;20240;-56
2021/12/23 00:58:20;;;;;;;25.17;16.93;;;;;;;;;;4997126;28;20440;-56
2021/12/23 01:00:46;;;;;;;23.43;16.57;;;;;;;;;;4998971;28;20293;-56
2021/12/23 01:03:12;;;;;;;24.87;16.23;;;;;;;;;;5004294;28;20246;-56
2021/12/23 01:05:38;;;;;;;22.90;16.87;;;;;;;;;;4999059;28;20247;-55
2021/12/23 01:08:04;;;;;;;27.30;18.03;;;;;;;;;;4999170;28;20745;-56
2021/12/23 01:10:30;;;;;;;28.60;17.03;;;;;;;;;;4987238;28;20867;-56
2021/12/23 01:12:58;;;;;;;23.90;16.97;;;;;;;;;;5002587;28;20251;-56
2021/12/23 01:17:55;;;;;;;22.50;15.77;;;;;;;;;;4995339;28;20236;-56
2021/12/23 01:20:26;;;;;;;24.83;17.73;;;;;;;;;;5002860;28;20241;-56
2021/12/23 01:22:52;;;;;;;25.27;17.37;;;;;;;;;;4997103;28;20239;-56
2021/12/23 01:25:18;;;;;;;24.97;16.87;;;;;;;;;;4995809;28;20241;-56
2021/12/23 01:27:44;;;;;;;23.93;17.30;;;;;;;;;;4997103;28;20238;-56
2021/12/23 01:30:10;;;;;;;21.80;16.70;;;;;;;;;;4999214;28;20224;-56
2021/12/23 01:32:36;;;;;;;25.37;17.30;;;;;;;;;;4994208;28;20330;-56
2021/12/23 01:35:02;;;;;;;22.77;17.20;;;;;;;;;;4998687;28;20236;-56
2021/12/23 01:37:28;;;;;;;25.43;17.77;;;;;;;;;;4997731;28;20251;-56
2021/12/23 01:39:54;;;;;;;27.47;17.30;;;;;;;;;;4997436;28;20228;-56
2021/12/23 01:42:20;;;;;;;25.87;17.90;;;;;;;;;;5008183;28;20848;-56
2021/12/23 01:44:46;;;;;;;23.60;16.60;;;;;;;;;;5006376;28;20236;-56
2021/12/23 01:47:12;;;;;;;24.00;17.03;;;;;;;;;;5007421;28;20512;-56
2021/12/23 01:49:38;;;;;;;24.33;17.50;;;;;;;;;;5006282;28;20229;-54
2021/12/23 01:52:04;;;;;;;24.23;17.20;;;;;;;;;;5006806;28;20695;-55
2021/12/23 01:54:30;;;;;;;24.27;17.10;;;;;;;;;;4994879;28;20312;-56
2021/12/23 01:56:57;;;;;;;23.13;16.43;;;;;;;;;;4997730;28;20419;-55
2021/12/23 01:59:23;;;;;;;24.43;17.17;;;;;;;;;;5002178;28;20282;-56
2021/12/23 02:01:49;;;;;;;23.90;15.90;;;;;;;;;;4994574;28;20761;-56
2021/12/23 02:04:15;;;;;;;24.77;17.67;;;;;;;;;;4987762;28;20236;-56
2021/12/23 02:06:41;;;;;;;22.63;17.30;;;;;;;;;;4990991;28;20236;-56
2021/12/23 02:09:07;;;;;;;23.73;16.87;;;;;;;;;;4992065;28;20236;-55
2021/12/23 02:11:33;;;;;;;29.63;18.33;;;;;;;;;;4990842;28;21542;-56
2021/12/23 02:13:59;;;;;;;25.90;17.53;;;;;;;;;;4991808;28;20225;-56
2021/12/23 02:16:25;;;;;;;26.53;17.67;;;;;;;;;;4995930;28;20351;-56
2021/12/23 02:18:51;;;;;;;25.20;18.00;;;;;;;;;;4996614;28;21642;-56
2021/12/23 02:21:17;;;;;;;24.27;17.87;;;;;;;;;;5004799;28;20269;-56
2021/12/23 02:23:43;;;;;;;25.10;16.97;;;;;;;;;;4993302;28;20627;-56
2021/12/23 02:26:09;;;;;;;30.00;17.70;;;;;;;;;;4986803;28;20609;-56
2021/12/23 02:28:35;;;;;;;28.30;19.20;;;;;;;;;;4997760;28;20243;-56
2021/12/23 02:31:01;;;;;;;27.43;17.87;;;;;;;;;;5000691;28;20314;-56
2021/12/23 02:33:27;;;;;;;24.63;17.13;;;;;;;;;;5006257;28;20689;-56
2021/12/23 02:35:54;;;;;;;23.80;17.07;;;;;;;;;;5001544;28;20642;-55
2021/12/23 02:38:20;;;;;;;27.53;17.90;;;;;;;;;;5001506;28;20777;-56
2021/12/23 02:40:46;;;;;;;27.83;17.57;;;;;;;;;;4999266;28;20236;-56
2021/12/23 02:43:13;;;;;;;26.87;17.83;;;;;;;;;;4991576;28;20223;-56
2021/12/23 02:45:39;;;;;;;28.03;17.57;;;;;;;;;;4998944;28;20252;-56
2021/12/23 02:48:11;;;;;;;27.17;17.67;;;;;;;;;;5000632;28;20246;-56
2021/12/23 02:50:37;;;;;;;24.10;17.10;;;;;;;;;;5010750;28;20236;-56
2021/12/23 02:53:03;;;;;;;26.30;17.67;;;;;;;;;;5011219;28;20258;-55
2021/12/23 02:55:29;;;;;;;27.03;18.43;;;;;;;;;;5010642;28;20734;-56
2021/12/23 02:57:55;;;;;;;23.50;16.87;;;;;;;;;;5003988;28;20646;-56
2021/12/23 03:00:21;;;;;;;25.30;17.70;;;;;;;;;;5011998;28;20630;-55
2021/12/23 03:02:47;;;;;;;28.97;18.63;;;;;;;;;;5009936;28;20236;-56
2021/12/23 03:05:13;;;;;;;25.30;18.40;;;;;;;;;;5006457;28;20243;-56
2021/12/23 03:07:39;;;;;;;25.63;17.53;;;;;;;;;;5014453;28;20827;-56
2021/12/23 03:10:05;;;;;;;26.33;18.17;;;;;;;;;;5009607;28;20320;-56
2021/12/23 03:12:31;;;;;;;30.00;18.63;;;;;;;;;;4997445;28;20677;-56
2021/12/23 03:14:57;;;;;;;23.83;17.33;;;;;;;;;;4997992;28;20294;-56
2021/12/23 03:17:23;;;;;;;26.33;17.57;;;;;;;;;;5001042;28;20903;-56
2021/12/23 03:19:49;;;;;;;29.83;18.17;;;;;;;;;;5011911;28;20232;-56
2021/12/23 03:22:15;;;;;;;24.30;17.70;;;;;;;;;;5011368;28;20999;-56
2021/12/23 03:24:41;;;;;;;24.20;17.73;;;;;;;;;;4995008;28;20264;-56
2021/12/23 03:27:07;;;;;;;25.53;17.93;;;;;;;;;;5006034;28;20281;-56
2021/12/23 03:29:33;;;;;;;24.10;17.43;;;;;;;;;;5000050;28;20373;-55
2021/12/23 03:31:59;;;;;;;24.47;17.67;;;;;;;;;;4995535;28;20696;-55
2021/12/23 03:34:25;;;;;;;24.97;17.80;;;;;;;;;;5001570;28;20379;-56
2021/12/23 03:36:51;;;;;;;26.63;18.33;;;;;;;;;;4995660;28;20233;-56
2021/12/23 03:39:19;;;;;;;25.03;17.50;;;;;;;;;;4995775;28;20947;-55
2021/12/23 03:41:45;;;;;;;24.77;17.73;;;;;;;;;;5001536;28;20244;-56
2021/12/23 03:44:11;;;;;;;26.30;17.43;;;;;;;;;;4993034;28;20427;-56
2021/12/23 03:46:38;;;;;;;24.37;16.97;;;;;;;;;;5001904;28;20244;-55
2021/12/23 03:49:04;;;;;;;27.00;18.43;;;;;;;;;;5001331;28;20299;-55
2021/12/23 03:51:30;;;;;;;26.37;17.53;;;;;;;;;;5006249;28;20318;-56
2021/12/23 03:53:56;;;;;;;25.03;17.63;;;;;;;;;;4996592;28;20224;-55
2021/12/23 03:56:22;;;;;;;27.73;18.77;;;;;;;;;;4997657;28;20232;-56
2021/12/23 03:58:48;;;;;;;24.93;17.83;;;;;;;;;;5001182;28;21072;-56
2021/12/23 04:01:14;;;;;;;25.90;17.93;;;;;;;;;;4998607;28;20666;-56
2021/12/23 04:03:40;;;;;;;24.10;17.40;;;;;;;;;;5007673;28;20234;-55
2021/12/23 04:06:06;;;;;;;26.30;17.27;;;;;;;;;;5011077;28;20322;-56
2021/12/23 04:08:32;;;;;;;26.87;18.37;;;;;;;;;;5008872;28;20238;-55
2021/12/23 04:10:58;;;;;;;24.83;16.70;;;;;;;;;;5005331;28;20240;-55
2021/12/23 04:13:25;;;;;;;24.57;17.37;;;;;;;;;;5015060;28;20223;-55
2021/12/23 04:15:51;;;;;;;29.27;18.87;;;;;;;;;;5011528;28;20232;-56
2021/12/23 04:18:17;;;;;;;26.00;18.27;;;;;;;;;;5016473;28;20244;-56
2021/12/23 04:20:53;;;;;;;26.23;18.90;;;;;;;;;;5007866;28;20248;-56
2021/12/23 04:23:19;;;;;;;25.10;18.10;;;;;;;;;;5010366;28;20259;-56
2021/12/23 04:25:45;;;;;;;25.87;18.33;;;;;;;;;;5005131;28;20544;-56
2021/12/23 04:28:11;;;;;;;28.23;18.73;;;;;;;;;;5019601;28;20243;-56
2021/12/23 04:30:37;;;;;;;29.13;19.00;;;;;;;;;;5026802;28;20231;-55
2021/12/23 04:33:03;;;;;;;25.27;18.23;;;;;;;;;;5017714;28;20244;-55
2021/12/23 04:35:29;;;;;;;25.83;17.60;;;;;;;;;;5017915;28;20248;-55
2021/12/23 04:37:55;;;;;;;26.57;17.67;;;;;;;;;;5017551;28;20246;-55
2021/12/23 04:40:21;;;;;;;26.03;18.00;;;;;;;;;;5008264;28;20231;-56
2021/12/23 04:42:47;;;;;;;28.03;18.97;;;;;;;;;;5009114;28;20272;-56
2021/12/23 04:45:13;;;;;;;26.87;18.37;;;;;;;;;;4999311;28;20722;-56
2021/12/23 04:47:39;;;;;;;27.63;18.47;;;;;;;;;;4992024;28;20278;-56
2021/12/23 04:50:06;;;;;;;24.43;17.50;;;;;;;;;;5002991;28;20235;-56
2021/12/23 04:52:32;;;;;;;25.63;17.57;;;;;;;;;;4997905;28;20236;-56
2021/12/23 04:54:58;;;;;;;26.97;19.43;;;;;;;;;;5004077;28;20285;-56
2021/12/23 04:57:24;;;;;;;22.90;17.67;;;;;;;;;;5004759;28;20223;-56
2021/12/23 04:59:50;;;;;;;27.30;18.57;;;;;;;;;;5003897;28;21158;-56
2021/12/23 05:02:16;;;;;;;24.00;17.87;;;;;;;;;;5002946;28;20664;-55
2021/12/23 05:04:42;;;;;;;25.13;18.23;;;;;;;;;;4994329;28;20429;-56
2021/12/23 05:07:08;;;;;;;26.67;18.20;;;;;;;;;;5001573;28;21261;-55
2021/12/23 05:09:34;;;;;;;26.93;18.73;;;;;;;;;;4993202;28;20236;-56
2021/12/23 05:11:59;;;;;;;25.37;18.33;;;;;;;;;;4997266;28;20267;-56
2021/12/23 05:14:26;;;;;;;24.73;17.30;;;;;;;;;;4998981;28;20750;-55
2021/12/23 05:16:51;;;;;;;28.33;18.97;;;;;;;;;;4995470;28;20258;-55
2021/12/23 05:19:17;;;;;;;23.57;17.90;;;;;;;;;;5004275;28;20639;-56
2021/12/23 05:21:43;;;;;;;26.13;18.50;;;;;;;;;;4995609;28;20362;-55
2021/12/23 05:24:09;;;;;;;27.07;18.57;;;;;;;;;;4990092;28;20887;-55
2021/12/23 05:26:35;;;;;;;25.23;18.03;;;;;;;;;;4997749;28;20274;-56
2021/12/23 05:29:02;;;;;;;28.27;19.10;;;;;;;;;;4997402;28;20245;-56
2021/12/23 05:31:28;;;;;;;28.37;19.40;;;;;;;;;;4998613;28;20228;-56
2021/12/23 05:33:54;;;;;;;29.37;18.73;;;;;;;;;;4997618;28;20236;-56
2021/12/23 05:36:20;;;;;;;28.43;19.33;;;;;;;;;;4998845;28;20236;-55
2021/12/23 05:38:46;;;;;;;27.50;18.47;;;;;;;;;;5008985;28;20229;-56
2021/12/23 05:41:12;;;;;;;29.87;18.87;;;;;;;;;;5011455;28;20236;-56
2021/12/23 05:43:38;;;;;;;27.60;19.23;;;;;;;;;;5006731;28;20635;-56
2021/12/23 05:46:04;;;;;;;27.40;18.23;;;;;;;;;;4989667;28;20324;-55
2021/12/23 05:48:30;;;;;;;27.33;19.10;;;;;;;;;;5009028;28;20236;-55
2021/12/23 05:50:56;;;;;;;28.27;18.90;;;;;;;;;;4987242;28;20304;-56
2021/12/23 05:53:22;;;;;;;27.13;18.87;;;;;;;;;;4991453;28;20232;-56
2021/12/23 05:55:48;;;;;;;27.43;18.60;;;;;;;;;;4991557;28;20283;-55
2021/12/23 05:58:14;;;;;;;26.17;18.70;;;;;;;;;;4998641;28;20272;-56
2021/12/23 06:00:40;;;;;;;28.40;20.37;;;;;;;;;;5013019;28;20267;-56
2021/12/23 06:03:06;;;;;;;28.53;19.33;;;;;;;;;;5010492;28;20232;-56
2021/12/23 06:05:32;;;;;;;26.10;17.80;;;;;;;;;;5007484;28;20425;-56
2021/12/23 06:07:58;;;;;;;27.10;18.47;;;;;;;;;;4991893;28;20264;-56
2021/12/23 06:10:24;;;;;;;27.50;18.50;;;;;;;;;;4996706;28;20638;-56
2021/12/23 06:12:50;;;;;;;32.60;20.33;;;;;;;;;;5005039;28;20362;-56
2021/12/23 06:15:16;;;;;;;28.13;19.27;;;;;;;;;;5005941;28;20231;-56
2021/12/23 06:17:42;;;;;;;28.03;19.17;;;;;;;;;;4997507;28;20250;-55
2021/12/23 06:20:08;;;;;;;32.00;19.00;;;;;;;;;;5006063;28;20799;-55
2021/12/23 06:22:35;;;;;;;31.60;19.80;;;;;;;;;;5005720;28;20695;-55
2021/12/23 06:25:02;;;;;;;25.87;18.47;;;;;;;;;;5009103;28;20241;-55
2021/12/23 06:27:28;;;;;;;29.77;19.70;;;;;;;;;;5011151;28;20220;-55
2021/12/23 06:29:54;;;;;;;28.80;18.80;;;;;;;;;;5012405;28;20226;-55
2021/12/23 06:32:20;;;;;;;25.37;18.77;;;;;;;;;;5012934;28;20699;-55
2021/12/23 06:34:46;;;;;;;29.30;19.13;;;;;;;;;;5012805;28;20760;-55
2021/12/23 06:37:12;;;;;;;26.33;18.43;;;;;;;;;;5015369;28;22079;-55
2021/12/23 06:39:39;;;;;;;27.90;19.43;;;;;;;;;;5010169;28;20233;-55
2021/12/23 06:42:05;;;;;;;27.67;18.63;;;;;;;;;;5013375;28;20233;-55
2021/12/23 06:44:31;;;;;;;27.90;18.53;;;;;;;;;;5003371;28;22178;-55
2021/12/23 06:46:57;;;;;;;28.57;19.43;;;;;;;;;;5000672;28;20236;-55
2021/12/23 06:49:23;;;;;;;28.27;18.40;;;;;;;;;;5009955;28;20597;-55
2021/12/23 06:51:49;;;;;;;29.03;18.93;;;;;;;;;;5010649;28;20247;-55
2021/12/23 06:54:15;;;;;;;32.63;21.13;;;;;;;;;;5004841;28;20235;-55
2021/12/23 06:56:41;;;;;;;29.23;19.67;;;;;;;;;;5000382;28;20849;-55
2021/12/23 06:59:07;;;;;;;26.07;18.00;;;;;;;;;;5014458;28;20317;-55
2021/12/23 07:01:33;;;;;;;28.87;18.80;;;;;;;;;;4998099;28;20233;-55
2021/12/23 07:06:26;;;;;;;27.33;18.63;;;;;;;;;;5008417;28;20233;-55
2021/12/23 07:08:54;;;;;;;29.03;19.73;;;;;;;;;;5001642;28;20736;-55
2021/12/23 07:11:20;;;;;;;27.57;18.70;;;;;;;;;;5012001;28;20282;-54
2021/12/23 07:13:46;;;;;;;32.13;20.23;;;;;;;;;;4996733;28;20233;-55
2021/12/23 07:16:12;;;;;;;28.97;19.53;;;;;;;;;;5007362;28;20621;-55
2021/12/23 07:18:38;;;;;;;30.43;19.43;;;;;;;;;;5009035;28;20231;-55
2021/12/23 07:21:04;;;;;;;27.70;19.43;;;;;;;;;;5002588;28;20464;-55
2021/12/23 07:23:30;;;;;;;30.83;19.40;;;;;;;;;;4997867;28;20234;-55
2021/12/23 07:25:56;;;;;;;30.60;19.03;;;;;;;;;;4996373;28;20244;-55
2021/12/23 07:28:22;;;;;;;32.27;19.77;;;;;;;;;;5004934;28;20393;-55
2021/12/23 07:30:48;;;;;;;28.63;19.07;;;;;;;;;;5013372;28;20240;-55
2021/12/23 07:33:14;;;;;;;30.97;20.23;;;;;;;;;;5007105;28;20706;-55
2021/12/23 07:35:40;;;;;;;26.83;18.67;;;;;;;;;;5019267;28;20251;-55
2021/12/23 07:38:06;;;;;;;28.40;18.67;;;;;;;;;;5016467;28;20753;-55
2021/12/23 07:40:32;;;;;;;28.60;19.13;;;;;;;;;;5007199;28;20231;-55
2021/12/23 07:43:09;;;;;;;28.07;19.03;;;;;;;;;;5010253;28;21408;-55
2021/12/23 07:45:35;;;;;;;29.17;18.87;;;;;;;;;;4994381;28;20232;-55
2021/12/23 07:48:01;;;;;;;27.90;18.80;;;;;;;;;;5015950;28;21547;-55
2021/12/23 07:50:27;;;;;;;27.53;19.50;;;;;;;;;;5009763;28;20294;-55
2021/12/23 07:52:53;;;;;;;28.63;18.93;;;;;;;;;;5013542;28;20359;-54
2021/12/23 07:55:20;;;;;;;27.93;19.67;;;;;;;;;;5004699;28;20836;-55
2021/12/23 07:57:46;;;;;;;29.00;19.90;;;;;;;;;;5017825;28;20279;-55
2021/12/23 08:00:13;;;;;;;27.73;19.10;;;;;;;;;;5009019;28;20664;-55
2021/12/23 08:02:39;;;;;;;25.93;19.27;;;;;;;;;;5009332;28;20947;-55
2021/12/23 08:05:05;;;;;;;27.47;19.00;;;;;;;;;;5000620;28;20320;-55
2021/12/23 08:07:31;;;;;;;27.33;19.47;;;;;;;;;;5010404;28;20237;-55
2021/12/23 08:09:57;;;;;;;28.63;18.97;;;;;;;;;;5014619;28;20304;-55
2021/12/23 08:12:23;;;;;;;27.90;19.87;;;;;;;;;;5010331;28;20232;-55
2021/12/23 08:14:49;;;;;;;28.03;19.33;;;;;;;;;;5010417;28;20643;-55
2021/12/23 08:17:15;;;;;;;27.77;19.00;;;;;;;;;;5009268;28;20778;-55
2021/12/23 08:19:41;;;;;;;29.30;19.43;;;;;;;;;;5007145;28;20239;-55
2021/12/23 08:22:07;;;;;;;27.90;19.17;;;;;;;;;;5003066;28;20250;-55
2021/12/23 08:24:33;;;;;;;28.17;19.30;;;;;;;;;;4996966;28;20236;-54
2021/12/23 08:26:59;;;;;;;27.77;18.73;;;;;;;;;;5003875;28;20282;-55
2021/12/23 08:29:27;;;;;;;29.30;19.53;;;;;;;;;;5001571;28;20351;-55
2021/12/23 08:31:53;;;;;;;27.13;19.17;;;;;;;;;;5012796;28;20702;-55
2021/12/23 08:34:25;;;;;;;28.00;18.90;;;;;;;;;;5006638;28;20587;-55
2021/12/23 08:36:51;;;;;;;27.10;19.33;;;;;;;;;;5009243;28;20241;-56
2021/12/23 08:39:18;;;;;;;26.70;18.60;;;;;;;;;;4996270;28;20243;-55
2021/12/23 08:41:44;;;;;;;26.53;18.37;;;;;;;;;;5008082;28;20427;-55
2021/12/23 08:44:10;;;;;;;27.50;18.53;;;;;;;;;;5016099;28;20729;-55
2021/12/23 08:46:36;;;;;;;29.77;19.57;;;;;;;;;;5005881;28;20241;-54
2021/12/23 08:49:02;;;;;;;26.40;18.63;;;;;;;;;;5009758;28;20379;-54
2021/12/23 08:51:28;;;;;;;28.17;19.73;;;;;;;;;;5016712;28;20236;-55
2021/12/23 08:53:54;;;;;;;25.20;18.67;;;;;;;;;;5004379;28;20244;-55
2021/12/23 08:56:20;;;;;;;30.00;19.17;;;;;;;;;;5018920;28;21160;-55
2021/12/23 08:58:46;;;;;;;31.00;19.20;;;;;;;;;;5020027;28;20612;-55
2021/12/23 09:01:12;;;;;;;30.13;18.90;;;;;;;;;;5014248;28;20264;-55
2021/12/23 09:03:38;;;;;;;27.50;19.77;;;;;;;;;;4999856;28;20240;-55
2021/12/23 09:06:04;;;;;;;27.33;18.87;;;;;;;;;;5015479;28;25567;-55
2021/12/23 09:08:30;;;;;;;28.80;19.10;;;;;;;;;;5016778;28;20232;-55
2021/12/23 09:10:56;;;;;;;27.30;18.10;;;;;;;;;;5012844;28;20242;-55
2021/12/23 09:13:23;;;;;;;28.63;18.43;;;;;;;;;;5012169;28;20701;-55
2021/12/23 09:15:49;;;;;;;27.27;20.00;;;;;;;;;;5013570;28;20236;-55
2021/12/23 09:18:15;;;;;;;27.47;19.00;;;;;;;;;;5021045;28;20239;-56
2021/12/23 09:20:41;;;;;;;26.40;18.97;;;;;;;;;;5015963;28;20294;-55
2021/12/23 09:23:07;;;;;;;26.17;18.60;;;;;;;;;;5005050;28;20302;-55
2021/12/23 09:25:34;;;;;;;27.50;18.43;;;;;;;;;;5012929;28;20247;-55
2021/12/23 09:33:29;;;;;;;24.53;17.33;;;;;;;;;;5023703;28;20601;-55
2021/12/23 09:35:55;;;;;;;26.80;17.60;;;;;;;;;;5013257;28;20224;-56
2021/12/23 09:38:27;;;;;;;25.73;17.73;;;;;;;;;;5009909;28;20236;-56
2021/12/23 09:40:53;;;;;;;26.97;17.73;;;;;;;;;;5007594;28;20237;-55
2021/12/23 09:43:19;;;;;;;28.23;18.23;;;;;;;;;;5016566;28;20310;-56
2021/12/23 09:45:46;;;;;;;25.23;17.83;;;;;;;;;;5020647;28;20925;-56
2021/12/23 09:48:12;;;;;;;31.17;19.03;;;;;;;;;;5006997;28;20488;-55
2021/12/23 09:50:39;;;;;;;26.37;17.97;;;;;;;;;;5008235;28;20229;-54
2021/12/23 09:53:05;;;;;;;25.63;17.67;;;;;;;;;;5011131;28;20387;-56
2021/12/23 09:55:31;;;;;;;26.80;17.93;;;;;;;;;;5019870;28;20227;-55
2021/12/23 09:57:58;;;;;;;28.60;17.80;;;;;;;;;;5009294;28;20233;-55
2021/12/23 10:00:25;;;;;;;24.50;17.30;;;;;;;;;;5016055;28;20228;-56
2021/12/23 10:02:52;;;;;;;24.43;18.10;;;;;;;;;;5021446;28;20231;-55
2021/12/23 10:05:18;;;;;;;26.67;17.90;;;;;;;;;;5026910;28;20744;-55
2021/12/23 10:07:46;;;;;;;24.37;17.23;;;;;;;;;;5010253;28;20324;-56
2021/12/23 10:10:21;;;;;;;26.27;17.67;;;;;;;;;;5012234;28;20773;-55
2021/12/23 10:27:08;;;;;;;24.00;16.73;;;;;;;;;;5026552;28;20239;-55
2021/12/23 10:38:01;;;;;;;27.07;17.97;;;;;;;;;;5019209;28;20753;-55
2021/12/23 10:40:29;;;;;;;25.00;17.80;;;;;;;;;;5020120;28;20425;-56
2021/12/23 10:42:55;;;;;;;24.80;17.13;;;;;;;;;;5005301;28;20801;-56
2021/12/23 10:45:21;;;;;;;24.63;17.37;;;;;;;;;;5009978;28;20240;-55
2021/12/23 10:48:03;;;;;;;27.00;18.23;;;;;;;;;;5021154;28;20231;-55
2021/12/23 10:50:38;;;;;;;24.50;17.97;;;;;;;;;;5008136;28;21120;-55
2021/12/23 10:53:08;;;;;;;24.90;17.87;;;;;;;;;;5013716;28;20231;-56
2021/12/23 10:58:19;;;;;;;26.97;18.43;;;;;;;;;;5016279;28;20682;-55
2021/12/23 11:00:47;;;;;;;25.73;18.40;;;;;;;;;;5020728;28;20243;-56
2021/12/23 11:03:20;;;;;;;22.53;16.93;;;;;;;;;;5019834;28;20223;-56
2021/12/23 11:05:53;;;;;;;25.33;17.87;;;;;;;;;;5020456;28;20945;-56
2021/12/23 11:38:21;;;;;;;27.00;17.87;;;;;;;;;;5012935;28;20233;-56
2021/12/23 11:40:54;;;;;;;23.73;17.90;;;;;;;;;;5008071;28;20240;-56
2021/12/23 11:43:29;;;;;;;24.10;17.30;;;;;;;;;;5007864;28;20283;-56
2021/12/23 11:45:55;;;;;;;25.53;17.20;;;;;;;;;;5003329;28;20647;-56
2021/12/23 11:48:21;;;;;;;25.47;17.60;;;;;;;;;;4997615;28;20578;-56
2021/12/23 11:50:56;;;;;;;24.40;17.43;;;;;;;;;;5001938;28;20727;-58
2021/12/23 11:53:24;;;;;;;25.33;18.17;;;;;;;;;;4989290;28;20215;-56
2021/12/23 11:55:50;;;;;;;28.53;17.90;;;;;;;;;;4994677;28;20326;-56
2021/12/23 11:58:16;;;;;;;23.10;17.33;;;;;;;;;;4999087;28;20232;-56
2021/12/23 12:00:43;;;;;;;25.47;17.10;;;;;;;;;;5009887;28;20236;-56
2021/12/23 12:03:09;;;;;;;28.10;17.40;;;;;;;;;;4989013;28;20293;-56
2021/12/23 12:05:36;;;;;;;26.50;17.60;;;;;;;;;;5000038;28;20250;-56
2021/12/23 12:08:08;;;;;;;23.33;17.23;;;;;;;;;;5003273;28;20283;-56
2021/12/23 12:10:34;;;;;;;25.17;18.20;;;;;;;;;;5006562;28;20223;-56
2021/12/23 12:13:04;;;;;;;24.60;17.43;;;;;;;;;;5003406;28;20307;-56
2021/12/23 12:15:39;;;;;;;26.07;17.97;;;;;;;;;;4995625;28;20379;-56
2021/12/23 12:18:09;;;;;;;24.27;17.20;;;;;;;;;;4991871;28;20289;-56
2021/12/23 12:20:39;;;;;;;25.90;17.77;;;;;;;;;;5000446;28;20474;-56
2021/12/23 12:23:06;;;;;;;26.30;18.00;;;;;;;;;;4993570;28;20259;-56
2021/12/23 12:25:40;;;;;;;29.90;16.83;;;;;;;;;;4992686;28;20690;-56
2021/12/23 12:28:06;;;;;;;23.87;16.60;;;;;;;;;;4992710;28;20236;-55
2021/12/23 12:30:44;;;;;;;27.37;18.03;;;;;;;;;;4989299;28;20250;-56
2021/12/23 12:33:10;;;;;;;27.70;18.87;;;;;;;;;;4982441;28;20232;-56
2021/12/23 12:35:36;;;;;;;28.07;18.30;;;;;;;;;;4994042;28;20772;-56
2021/12/23 12:38:18;;;;;;;26.13;17.73;;;;;;;;;;4987159;28;20716;-56
2021/12/23 12:40:57;;;;;;;25.30;17.60;;;;;;;;;;4988606;28;20246;-56
2021/12/23 12:43:31;;;;;;;24.77;17.10;;;;;;;;;;4985279;28;20236;-56
2021/12/23 12:45:57;;;;;;;25.10;17.50;;;;;;;;;;4986757;28;20239;-56
2021/12/23 12:48:27;;;;;;;31.23;17.40;;;;;;;;;;4986927;28;21165;-55
2021/12/23 12:50:53;;;;;;;24.20;18.07;;;;;;;;;;4994576;28;20240;-56
2021/12/23 12:53:20;;;;;;;24.40;17.13;;;;;;;;;;4993092;28;20236;-56
2021/12/23 12:55:47;;;;;;;27.10;17.53;;;;;;;;;;4987583;28;20248;-56
2021/12/23 12:58:13;;;;;;;25.70;16.70;;;;;;;;;;4975708;28;20277;-56
2021/12/23 13:00:40;;;;;;;23.37;17.20;;;;;;;;;;5005178;28;20236;-56
2021/12/23 13:03:14;;;;;;;26.10;17.23;;;;;;;;;;4983965;28;20714;-56
2021/12/23 13:05:42;;;;;;;24.03;16.70;;;;;;;;;;4999315;28;20718;-56
2021/12/23 13:08:21;;;;;;;29.20;17.27;;;;;;;;;;4999652;28;20258;-56
2021/12/23 13:10:49;;;;;;;29.43;17.30;;;;;;;;;;4998539;28;20736;-56
2021/12/23 13:13:26;;;;;;;24.63;16.83;;;;;;;;;;5002983;28;20231;-56
2021/12/23 13:15:57;;;;;;;26.13;16.77;;;;;;;;;;4991468;28;20246;-55
2021/12/23 13:18:23;;;;;;;26.67;17.47;;;;;;;;;;4996692;28;20243;-56
2021/12/23 13:20:54;;;;;;;26.03;18.10;;;;;;;;;;5011125;28;20708;-56
2021/12/23 13:23:29;;;;;;;22.90;16.60;;;;;;;;;;5006972;28;20240;-56
2021/12/23 13:25:59;;;;;;;26.27;17.07;;;;;;;;;;5005651;28;20267;-56
2021/12/23 13:28:36;;;;;;;25.87;16.73;;;;;;;;;;5004805;28;20240;-56
2021/12/23 13:31:06;;;;;;;25.13;16.20;;;;;;;;;;5015719;28;20235;-56
2021/12/23 13:33:40;;;;;;;24.73;16.93;;;;;;;;;;5011918;28;20297;-56
2021/12/23 13:36:12;;;;;;;23.77;16.93;;;;;;;;;;5016552;28;20233;-56
2021/12/23 13:38:40;;;;;;;24.97;17.27;;;;;;;;;;5012911;28;20745;-56
2021/12/23 13:41:13;;;;;;;25.87;16.63;;;;;;;;;;5014062;28;20309;-56
2021/12/23 13:43:39;;;;;;;24.80;16.67;;;;;;;;;;5013547;28;20246;-56
2021/12/23 13:46:05;;;;;;;25.00;17.07;;;;;;;;;;5012611;28;20241;-56
2021/12/23 13:48:31;;;;;;;24.53;17.13;;;;;;;;;;5011459;28;20235;-56
2021/12/23 13:50:57;;;;;;;26.53;16.80;;;;;;;;;;5005423;28;20236;-56
2021/12/23 13:53:23;;;;;;;25.70;17.27;;;;;;;;;;5006070;28;20725;-56
2021/12/23 13:55:50;;;;;;;25.47;17.67;;;;;;;;;;5005132;28;20255;-56
2021/12/23 13:58:23;;;;;;;25.73;17.17;;;;;;;;;;4999650;28;20240;-56
2021/12/23 14:00:49;;;;;;;26.97;17.43;;;;;;;;;;5009938;28;20720;-56
2021/12/23 14:03:15;;;;;;;25.97;17.70;;;;;;;;;;5002239;28;20224;-56
2021/12/23 14:05:42;;;;;;;25.17;17.63;;;;;;;;;;5005698;28;20240;-56
2021/12/23 14:08:08;;;;;;;27.00;17.37;;;;;;;;;;5000342;28;20275;-56
2021/12/23 14:10:34;;;;;;;30.77;18.47;;;;;;;;;;5002276;28;20241;-57
2021/12/23 14:13:04;;;;;;;27.43;18.40;;;;;;;;;;5004165;28;20244;-56
2021/12/23 14:15:33;;;;;;;28.17;17.67;;;;;;;;;;5000266;28;20697;-56
2021/12/23 14:18:05;;;;;;;28.60;18.07;;;;;;;;;;5008782;28;20225;-56
2021/12/23 14:23:39;;;;;;;28.60;18.40;;;;;;;;;;4966428;28;20734;-56
2021/12/23 14:26:06;;;;;;;26.30;17.57;;;;;;;;;;4988149;28;20262;-57
2021/12/23 14:28:34;;;;;;;27.93;19.17;;;;;;;;;;5002939;28;20254;-57
2021/12/23 14:31:12;;;;;;;28.47;18.33;;;;;;;;;;4997977;28;20240;-57
2021/12/23 14:34:07;;;;;;;28.60;19.23;;;;;;;;;;5009754;28;20366;-56
2021/12/23 14:36:34;;;;;;;26.67;18.57;;;;;;;;;;5002836;28;20228;-56
2021/12/23 14:39:01;;;;;;;29.20;19.27;;;;;;;;;;5012974;28;20260;-56
2021/12/23 14:41:34;;;;;;;29.37;19.63;;;;;;;;;;5005592;28;20236;-56
2021/12/23 14:44:01;;;;;;;32.27;19.07;;;;;;;;;;5009957;28;20248;-57
2021/12/23 14:46:27;;;;;;;26.87;18.33;;;;;;;;;;5009691;28;20634;-56
2021/12/23 14:49:10;;;;;;;30.73;18.33;;;;;;;;;;5004544;28;20222;-56
2021/12/23 14:51:37;;;;;;;27.77;18.10;;;;;;;;;;5006621;28;20232;-56
2021/12/23 14:54:07;;;;;;;27.00;17.97;;;;;;;;;;4991394;28;20232;-56
2021/12/23 14:56:33;;;;;;;30.73;18.07;;;;;;;;;;4992988;28;20268;-56
2021/12/23 14:59:09;;;;;;;31.17;20.53;;;;;;;;;;5001415;28;20264;-56
2021/12/23 15:01:35;;;;;;;27.50;18.63;;;;;;;;;;5001991;28;20246;-57
2021/12/23 15:04:05;;;;;;;32.40;18.97;;;;;;;;;;5013045;28;20241;-56
2021/12/23 15:06:31;;;;;;;31.67;19.40;;;;;;;;;;5021002;28;20301;-56
2021/12/23 15:08:57;;;;;;;31.17;19.33;;;;;;;;;;5005229;28;20239;-56
2021/12/23 15:11:29;;;;;;;30.43;19.30;;;;;;;;;;5008453;28;20229;-55
2021/12/23 15:13:55;;;;;;;31.50;19.20;;;;;;;;;;4999985;28;20695;-55
2021/12/23 15:16:23;;;;;;;28.83;19.53;;;;;;;;;;5001890;28;20263;-55
2021/12/23 15:21:44;;;;;;;28.67;18.87;;;;;;;;;;4987658;28;23152;-55
2021/12/23 15:24:16;;;;;;;28.03;19.27;;;;;;;;;;4980663;28;20247;-55
2021/12/23 15:27:08;;;;;;;31.63;18.37;;;;;;;;;;4999554;28;20375;-55
2021/12/23 15:29:39;;;;;;;28.57;19.00;;;;;;;;;;5003265;28;20638;-55
2021/12/23 15:32:10;;;;;;;28.43;19.17;;;;;;;;;;4989216;28;20256;-55